createdAt,value
2022-12-08T00:01:22.441Z,100325.88
2022-12-08T00:04:09.834Z,100328.00
2022-12-08T00:07:16.063Z,100322.53
2022-12-08T00:10:18.871Z,100307.09
2022-12-08T00:13:10.773Z,100317.72
2022-12-08T00:16:01.210Z,100308.38
2022-12-08T00:18:48.630Z,100301.78
2022-12-08T00:21:35.804Z,100298.56
2022-12-08T00:24:23.405Z,100295.09
2022-12-08T00:27:13.376Z,100286.31
2022-12-08T00:30:00.653Z,100281.88
2022-12-08T00:32:47.946Z,100276.03
2022-12-08T00:35:40.081Z,100268.28
2022-12-08T00:38:29.944Z,100264.06
2022-12-08T00:41:19.321Z,100261.16
2022-12-08T00:44:10.238Z,100253.44
2022-12-08T00:46:57.546Z,100251.84
2022-12-08T00:49:44.833Z,100252.16
2022-12-08T00:52:32.208Z,100235.38
2022-12-08T00:55:19.594Z,100233.25
2022-12-08T00:58:06.697Z,100228.50
2022-12-08T01:00:54.302Z,100228.50
2022-12-08T01:03:42.324Z,100227.50
2022-12-08T01:06:29.658Z,100228.31
2022-12-08T01:09:18.022Z,100235.47
2022-12-08T01:12:05.729Z,100231.53
2022-12-08T01:14:55.008Z,100226.94
2022-12-08T01:17:44.180Z,100218.28
2022-12-08T01:20:31.823Z,100214.41
2022-12-08T01:23:19.323Z,100217.56
2022-12-08T01:26:07.807Z,100218.72
2022-12-08T01:28:54.981Z,100210.50
2022-12-08T01:31:42.192Z,100220.31
2022-12-08T01:34:29.507Z,100221.72
2022-12-08T01:37:17.026Z,100211.88
2022-12-08T01:40:04.649Z,100202.84
2022-12-08T01:42:52.783Z,100201.81
2022-12-08T01:45:40.074Z,100197.03
2022-12-08T01:48:27.496Z,100191.44
2022-12-08T01:51:14.700Z,100188.56
2022-12-08T01:54:03.279Z,100185.88
2022-12-08T01:56:56.581Z,100185.41
2022-12-08T01:59:46.810Z,100186.44
2022-12-08T02:02:41.961Z,100180.06
2022-12-08T02:05:31.258Z,100176.88
2022-12-08T02:08:19.566Z,100170.00
2022-12-08T02:11:11.144Z,100179.03
2022-12-08T02:14:00.722Z,100165.72
2022-12-08T02:17:03.447Z,100160.94
2022-12-08T02:20:09.510Z,100160.50
2022-12-08T02:22:56.782Z,100153.56
2022-12-08T02:25:52.923Z,100153.28
2022-12-08T02:28:58.971Z,100150.38
2022-12-08T02:32:05.385Z,100148.19
2022-12-08T02:35:07.728Z,100137.56
2022-12-08T02:38:06.114Z,100134.66
2022-12-08T02:40:53.299Z,100129.09
2022-12-08T02:43:59.472Z,100132.31
2022-12-08T02:46:52.529Z,100125.94
2022-12-08T02:49:39.801Z,100120.13
2022-12-08T02:52:26.881Z,100111.84
2022-12-08T02:55:23.221Z,100108.38
2022-12-08T02:58:25.786Z,100108.94
2022-12-08T03:01:12.910Z,100099.84
2022-12-08T03:04:11.638Z,100091.91
2022-12-08T03:07:10.339Z,100088.72
2022-12-08T03:10:06.021Z,100075.97
2022-12-08T03:13:06.300Z,100076.78
2022-12-08T03:15:54.884Z,100067.19
2022-12-08T03:18:45.277Z,100064.03
2022-12-08T03:21:33.467Z,100063.78
2022-12-08T03:24:22.107Z,100061.44
2022-12-08T03:27:19.220Z,100053.19
2022-12-08T03:30:07.374Z,100045.22
2022-12-08T03:32:56.993Z,100046.78
2022-12-08T03:35:44.777Z,100036.69
2022-12-08T03:38:42.957Z,100036.19
2022-12-08T03:41:30.187Z,100032.22
2022-12-08T03:44:17.491Z,100033.28
2022-12-08T03:47:04.663Z,100021.84
2022-12-08T03:49:51.943Z,100022.34
2022-12-08T03:52:39.117Z,100016.78
2022-12-08T03:55:26.353Z,100018.69
2022-12-08T03:58:13.560Z,100016.31
2022-12-08T04:01:00.958Z,100010.75
2022-12-08T04:03:48.723Z,100008.59
2022-12-08T04:06:37.748Z,100004.91
2022-12-08T04:09:24.924Z,100007.03
2022-12-08T04:12:13.315Z,99995.31
2022-12-08T04:15:00.459Z,99995.59
2022-12-08T04:17:47.901Z,99994.28
2022-12-08T04:20:38.509Z,99996.16
2022-12-08T04:23:25.640Z,99992.94
2022-12-08T04:26:13.704Z,99992.41
2022-12-08T04:29:01.122Z,99989.75
2022-12-08T04:31:48.659Z,99995.88
2022-12-08T04:34:35.849Z,99992.16
2022-12-08T04:37:23.041Z,99999.59
2022-12-08T04:40:11.267Z,100003.88
2022-12-08T04:42:58.372Z,100001.47
2022-12-08T04:45:46.364Z,100003.59
2022-12-08T04:48:34.021Z,99994.56
2022-12-08T04:51:21.547Z,99998.81
2022-12-08T04:54:08.707Z,99999.63
2022-12-08T04:56:55.854Z,100000.38
2022-12-08T04:59:42.975Z,100000.41
2022-12-08T05:02:30.205Z,100000.69
2022-12-08T05:05:17.441Z,100000.97
2022-12-08T05:08:05.301Z,100000.13
2022-12-08T05:10:52.682Z,100002.78
2022-12-08T05:13:39.936Z,100007.56
2022-12-08T05:16:27.117Z,100002.78
2022-12-08T05:19:14.811Z,100005.72
2022-12-08T05:22:02.360Z,100003.34
2022-12-08T05:24:49.543Z,99998.81
2022-12-08T05:27:37.191Z,99995.91
2022-12-08T05:30:24.345Z,99991.59
2022-12-08T05:33:11.889Z,99995.59
2022-12-08T05:35:59.423Z,99986.03
2022-12-08T05:38:47.031Z,99985.25
2022-12-08T05:41:34.281Z,99991.88
2022-12-08T05:44:21.510Z,99991.09
2022-12-08T05:47:08.760Z,99991.09
2022-12-08T05:49:56.008Z,99989.78
2022-12-08T05:52:43.147Z,99995.06
2022-12-08T05:55:31.567Z,99996.16
2022-12-08T05:58:20.902Z,100000.69
2022-12-08T06:01:08.252Z,99997.47
2022-12-08T06:03:55.472Z,99992.44
2022-12-08T06:06:42.741Z,99999.59
2022-12-08T06:09:30.057Z,99998.00
2022-12-08T06:12:17.335Z,99994.56
2022-12-08T06:15:04.739Z,99996.94
2022-12-08T06:17:51.841Z,99996.41
2022-12-08T06:20:39.018Z,99997.47
2022-12-08T06:23:26.445Z,100004.91
2022-12-08T06:26:14.967Z,100000.59
2022-12-08T06:29:02.310Z,100009.69
2022-12-08T06:31:49.585Z,100016.81
2022-12-08T06:34:36.734Z,100018.94
2022-12-08T06:37:23.915Z,100020.84
2022-12-08T06:40:11.748Z,100018.69
2022-12-08T06:42:59.099Z,100022.44
2022-12-08T06:45:46.382Z,100031.22
2022-12-08T06:48:33.898Z,100037.84
2022-12-08T06:51:22.780Z,100028.56
2022-12-08T06:54:10.293Z,100036.28
2022-12-08T06:56:57.468Z,100028.81
2022-12-08T06:59:44.978Z,100032.53
2022-12-08T07:02:32.173Z,100033.09
2022-12-08T07:05:19.765Z,100042.16
2022-12-08T07:08:08.249Z,100043.25
2022-12-08T07:10:55.398Z,100042.72
2022-12-08T07:13:42.825Z,100044.78
2022-12-08T07:16:30.252Z,100044.28
2022-12-08T07:19:17.445Z,100037.38
2022-12-08T07:22:04.584Z,100044.84
2022-12-08T07:24:51.696Z,100047.47
2022-12-08T07:27:38.892Z,100055.72
2022-12-08T07:30:26.129Z,100057.59
2022-12-08T07:33:13.538Z,100054.63
2022-12-08T07:36:05.459Z,100048.00
2022-12-08T07:38:55.668Z,100057.06
2022-12-08T07:41:43.145Z,100055.75
2022-12-08T07:44:30.407Z,100066.41
2022-12-08T07:47:17.854Z,100072.53
2022-12-08T07:50:05.815Z,100068.28
2022-12-08T07:52:53.383Z,100076.78
2022-12-08T07:55:41.428Z,100076.53
2022-12-08T07:58:28.838Z,100071.75
2022-12-08T08:01:23.780Z,100079.72
2022-12-08T08:04:11.203Z,100073.09
2022-12-08T08:06:58.508Z,100077.06
2022-12-08T08:09:46.014Z,100072.53
2022-12-08T08:12:33.590Z,100072.00
2022-12-08T08:15:21.482Z,100067.47
2022-12-08T08:18:12.071Z,100068.81
2022-12-08T08:21:06.751Z,100061.88
2022-12-08T08:24:06.619Z,100064.00
2022-12-08T08:26:55.474Z,100061.88
2022-12-08T08:29:42.956Z,100048.84
2022-12-08T08:32:33.296Z,100043.81
2022-12-08T08:35:21.117Z,100060.81
2022-12-08T08:38:08.371Z,100072.53
2022-12-08T08:40:56.020Z,100080.50
2022-12-08T08:43:43.145Z,100086.31
2022-12-08T08:46:30.503Z,100081.78
2022-12-08T08:49:18.792Z,100089.50
2022-12-08T08:52:06.306Z,100080.69
2022-12-08T08:54:53.680Z,100075.88
2022-12-08T08:57:40.998Z,100078.78
2022-12-08T09:00:28.306Z,100088.38
2022-12-08T09:03:16.713Z,100091.03
2022-12-08T09:06:04.224Z,100095.28
2022-12-08T09:08:51.440Z,100077.72
2022-12-08T09:11:38.733Z,100079.31
2022-12-08T09:14:26.256Z,100075.06
2022-12-08T09:17:13.535Z,100080.16
2022-12-08T09:20:01.473Z,100088.88
2022-12-08T09:22:49.112Z,100088.88
2022-12-08T09:25:36.645Z,100089.41
2022-12-08T09:28:24.052Z,100092.59
2022-12-08T09:31:11.256Z,100093.91
2022-12-08T09:34:01.522Z,100094.72
2022-12-08T09:36:48.675Z,100088.53
2022-12-08T09:39:35.820Z,100085.88
2022-12-08T09:42:45.613Z,100081.53
2022-12-08T09:45:34.369Z,100083.34
2022-12-08T09:48:27.714Z,100103.06
2022-12-08T09:51:15.997Z,100086.03
2022-12-08T09:54:08.807Z,100082.59
2022-12-08T09:56:59.437Z,100082.91
2022-12-08T09:59:50.118Z,100079.25
2022-12-08T10:02:39.473Z,100073.94
2022-12-08T10:05:27.753Z,100075.03
2022-12-08T10:08:18.039Z,100071.31
2022-12-08T10:11:11.528Z,100068.91
2022-12-08T10:14:07.778Z,100071.53
2022-12-08T10:16:57.206Z,100072.94
2022-12-08T10:19:45.632Z,100071.84
2022-12-08T10:22:38.695Z,100075.56
2022-12-08T10:25:36.249Z,100061.00
2022-12-08T10:28:23.697Z,100065.84
2022-12-08T10:31:21.610Z,100061.09
2022-12-08T10:34:19.350Z,100060.28
2022-12-08T10:37:09.382Z,100051.75
2022-12-08T10:40:06.878Z,100057.38
2022-12-08T10:42:56.452Z,100057.66
2022-12-08T10:45:44.631Z,100052.34
2022-12-08T10:48:32.034Z,100055.25
2022-12-08T10:51:43.477Z,100056.09
2022-12-08T10:54:37.594Z,100047.06
2022-12-08T10:57:25.519Z,100047.09
2022-12-08T11:00:14.832Z,100044.97
2022-12-08T11:03:04.033Z,100042.84
2022-12-08T11:05:55.750Z,100043.13
2022-12-08T11:08:48.389Z,100044.44
2022-12-08T11:11:54.744Z,100035.94
2022-12-08T11:14:44.652Z,100040.97
2022-12-08T11:17:41.453Z,100041.50
2022-12-08T11:20:38.256Z,100048.66
2022-12-08T11:23:26.283Z,100062.44
2022-12-08T11:26:33.713Z,100068.00
2022-12-08T11:29:21.207Z,100065.63
2022-12-08T11:32:12.664Z,100060.81
2022-12-08T11:35:04.562Z,100053.91
2022-12-08T11:37:56.522Z,100061.91
2022-12-08T11:40:52.310Z,100069.22
2022-12-08T11:43:39.378Z,100063.63
2022-12-08T11:46:37.633Z,100071.38
2022-12-08T11:49:29.063Z,100070.59
2022-12-08T11:52:30.751Z,100067.91
2022-12-08T11:55:42.651Z,100071.09
2022-12-08T11:58:38.231Z,100076.72
2022-12-08T12:01:26.554Z,100076.16
2022-12-08T12:04:32.934Z,100074.59
2022-12-08T12:07:29.231Z,100080.72
2022-12-08T12:10:25.682Z,100070.09
2022-12-08T12:13:34.747Z,100079.13
2022-12-08T12:16:40.250Z,100077.06
2022-12-08T12:19:30.462Z,100087.97
2022-12-08T12:22:20.442Z,100082.63
2022-12-08T12:25:15.937Z,100088.03
2022-12-08T12:28:05.007Z,100078.03
2022-12-08T12:30:56.588Z,100073.78
2022-12-08T12:33:46.037Z,100088.72
2022-12-08T12:36:44.157Z,100103.13
2022-12-08T12:39:32.583Z,100126.53
2022-12-08T12:42:35.227Z,100131.56
2022-12-08T12:45:22.731Z,100132.66
2022-12-08T12:48:09.972Z,100126.81
2022-12-08T12:50:57.320Z,100129.72
2022-12-08T12:53:44.429Z,100135.31
2022-12-08T12:56:48.504Z,100139.81
2022-12-08T12:59:35.693Z,100144.63
2022-12-08T13:02:33.715Z,100141.41
2022-12-08T13:05:26.304Z,100141.94
2022-12-08T13:08:20.939Z,100140.63
2022-12-08T13:11:09.852Z,100151.75
2022-12-08T13:13:58.036Z,100141.09
2022-12-08T13:16:45.313Z,100152.03
2022-12-08T13:19:33.246Z,100150.94
2022-12-08T13:22:39.368Z,100157.91
2022-12-08T13:25:44.876Z,100151.28
2022-12-08T13:28:32.049Z,100151.00
2022-12-08T13:31:43.741Z,100144.41
2022-12-08T13:34:34.007Z,100151.88
2022-12-08T13:37:53.839Z,100153.75
2022-12-08T13:40:42.651Z,100161.75
2022-12-08T13:43:45.190Z,100165.97
2022-12-08T13:47:16.777Z,100166.47
2022-12-08T13:59:34.265Z,100191.28
2022-12-08T14:02:34.205Z,100191.75
2022-12-08T14:06:16.100Z,100187.00
2022-12-08T14:09:00.402Z,100185.75
2022-12-08T14:11:35.258Z,100177.56
2022-12-08T14:14:07.717Z,100183.16
2022-12-08T14:16:42.445Z,100183.63
2022-12-08T14:19:24.072Z,100180.47
2022-12-08T14:21:53.570Z,100178.03
2022-12-08T14:24:21.814Z,100190.97
2022-12-08T14:26:50.264Z,100192.03
2022-12-08T14:29:38.043Z,100192.78
2022-12-08T14:32:25.288Z,100190.13
2022-12-08T14:34:55.266Z,100189.28
2022-12-08T14:37:23.163Z,100196.44
2022-12-08T14:39:50.889Z,100196.06
2022-12-08T14:42:22.559Z,100194.50
2022-12-08T14:44:55.315Z,100193.63
2022-12-08T14:47:22.131Z,100201.13
2022-12-08T14:49:48.958Z,100204.78
2022-12-08T14:52:15.936Z,100202.09
2022-12-08T14:54:43.498Z,100200.53
2022-12-08T14:57:11.404Z,100204.78
2022-12-08T14:59:39.096Z,100196.72
2022-12-08T15:02:12.190Z,100201.75
2022-12-08T15:04:40.504Z,100200.13
2022-12-08T15:07:10.518Z,100183.88
2022-12-08T15:09:37.385Z,100191.59
2022-12-08T15:12:05.945Z,100188.63
2022-12-08T15:14:34.321Z,100185.69
2022-12-08T15:17:01.311Z,100191.69
2022-12-08T15:19:30.027Z,100193.28
2022-12-08T15:21:58.051Z,100184.81
2022-12-08T15:24:26.441Z,100184.53
2022-12-08T15:26:53.426Z,100191.38
2022-12-08T15:29:21.960Z,100195.34
2022-12-08T15:31:49.812Z,100197.69
2022-12-08T15:34:16.853Z,100198.75
2022-12-08T15:36:45.742Z,100189.13
2022-12-08T15:39:21.264Z,100190.91
2022-12-08T15:41:48.174Z,100192.72
2022-12-08T15:44:15.212Z,100197.53
2022-12-08T15:46:42.075Z,100193.22
2022-12-08T15:49:16.002Z,100193.94
2022-12-08T15:51:43.017Z,100188.03
2022-12-08T15:54:09.838Z,100187.53
2022-12-08T15:57:53.486Z,100191.25
2022-12-08T16:00:50.348Z,100196.03
2022-12-08T16:03:42.132Z,100198.69
2022-12-08T16:09:06.211Z,100197.00
2022-12-08T16:12:06.393Z,100198.09
2022-12-08T16:17:21.493Z,100200.44
2022-12-08T16:19:48.646Z,100194.13
2022-12-08T16:25:23.200Z,100197.66
2022-12-08T16:28:01.430Z,100201.97
2022-12-08T16:30:33.135Z,100205.00
2022-12-08T16:33:00.145Z,100204.38
2022-12-08T16:35:28.184Z,100203.06
2022-12-08T16:37:55.540Z,100208.56
2022-12-08T16:40:22.451Z,100205.50
2022-12-08T16:42:50.464Z,100210.63
2022-12-08T16:45:24.520Z,100214.06
2022-12-08T16:47:52.637Z,100214.09
2022-12-08T16:50:20.953Z,100217.78
2022-12-08T16:52:48.962Z,100221.81
2022-12-08T16:55:17.345Z,100230.34
2022-12-08T16:57:44.908Z,100235.13
2022-12-08T17:00:14.716Z,100228.59
2022-12-08T17:02:41.903Z,100227.00
2022-12-08T17:05:10.698Z,100232.88
2022-12-08T17:07:37.982Z,100238.22
2022-12-08T17:10:06.408Z,100232.94
2022-12-08T17:12:38.215Z,100238.25
2022-12-08T17:15:06.086Z,100231.03
2022-12-08T17:17:35.370Z,100237.72
2022-12-08T17:20:05.246Z,100238.75
2022-12-08T17:22:33.214Z,100236.97
2022-12-08T17:25:01.681Z,100231.75
2022-12-08T17:27:28.729Z,100232.53
2022-12-08T17:29:57.125Z,100236.09
2022-12-08T17:32:24.172Z,100238.00
2022-12-08T17:34:51.504Z,100242.03
2022-12-08T17:37:19.002Z,100242.16
2022-12-08T17:39:46.118Z,100245.13
2022-12-08T17:42:13.120Z,100243.59
2022-12-08T17:44:41.095Z,100249.47
2022-12-08T17:47:09.289Z,100255.84
2022-12-08T17:49:36.545Z,100254.81
2022-12-08T17:52:07.454Z,100254.56
2022-12-08T17:54:35.230Z,100260.09
2022-12-08T17:57:02.515Z,100262.69
2022-12-08T17:59:30.094Z,100260.03
2022-12-08T18:01:57.355Z,100263.41
2022-12-08T18:04:25.117Z,100246.50
2022-12-08T18:06:52.358Z,100251.25
2022-12-08T18:09:19.521Z,100256.81
2022-12-08T18:11:46.587Z,100247.28
2022-12-08T18:14:14.494Z,100249.91
2022-12-08T18:16:42.930Z,100251.09
2022-12-08T18:19:10.514Z,100254.28
2022-12-08T18:21:37.518Z,100245.59
2022-12-08T18:24:04.632Z,100248.81
2022-12-08T18:26:31.615Z,100245.59
2022-12-08T18:29:00.149Z,100251.16
2022-12-08T18:31:27.367Z,100250.09
2022-12-08T18:33:54.902Z,100256.88
2022-12-08T18:36:23.364Z,100260.34
2022-12-08T18:38:50.547Z,100261.25
2022-12-08T18:41:18.747Z,100257.22
2022-12-08T18:43:45.978Z,100252.53
2022-12-08T18:46:15.127Z,100254.31
2022-12-08T18:48:43.774Z,100250.13
2022-12-08T18:51:12.215Z,100250.13
2022-12-08T18:53:39.809Z,100250.50
2022-12-08T18:56:07.370Z,100252.84
2022-12-08T18:58:34.972Z,100255.69
2022-12-08T19:01:02.189Z,100252.22
2022-12-08T19:03:29.429Z,100257.22
2022-12-08T19:06:06.546Z,100256.78
2022-12-08T19:08:33.459Z,100257.78
2022-12-08T19:11:00.432Z,100259.56
2022-12-08T19:13:27.422Z,100259.41
2022-12-08T19:15:54.879Z,100254.56
2022-12-08T19:18:21.854Z,100254.41
2022-12-08T19:20:48.865Z,100263.22
2022-12-08T19:23:16.010Z,100265.81
2022-12-08T19:25:43.216Z,100257.28
2022-12-08T19:28:10.403Z,100262.41
2022-12-08T19:30:39.023Z,100264.03
2022-12-08T19:33:06.857Z,100257.91
2022-12-08T19:35:33.802Z,100260.50
2022-12-08T19:38:01.130Z,100258.72
2022-12-08T19:40:47.547Z,100256.28
2022-12-08T19:43:34.519Z,100270.06
2022-12-08T19:46:01.706Z,100268.47
2022-12-08T19:48:29.533Z,100266.59
2022-12-08T19:50:56.540Z,100270.81
2022-12-08T19:53:24.578Z,100267.59
2022-12-08T19:55:53.193Z,100277.44
2022-12-08T19:58:20.414Z,100278.72
2022-12-08T20:00:47.703Z,100285.31
2022-12-08T20:03:18.379Z,100279.53
2022-12-08T20:05:45.943Z,100284.91
2022-12-08T20:08:12.942Z,100275.81
2022-12-08T20:10:40.790Z,100286.00
2022-12-08T20:13:27.004Z,100290.28
2022-12-08T20:15:54.057Z,100283.44
2022-12-08T20:18:21.577Z,100270.94
2022-12-08T20:20:48.626Z,100277.13
2022-12-08T20:23:16.231Z,100272.59
2022-12-08T20:25:44.421Z,100278.91
2022-12-08T20:28:12.706Z,100275.69
2022-12-08T20:30:40.168Z,100283.00
2022-12-08T20:33:07.334Z,100286.31
2022-12-08T20:35:34.407Z,100281.88
2022-12-08T20:38:01.422Z,100287.25
2022-12-08T20:40:28.609Z,100284.69
2022-12-08T20:42:55.441Z,100282.88
2022-12-08T20:45:22.363Z,100286.66
2022-12-08T20:47:49.308Z,100295.75
2022-12-08T20:50:16.310Z,100292.53
2022-12-08T20:52:43.401Z,100302.34
2022-12-08T20:55:10.628Z,100299.69
2022-12-08T20:57:37.663Z,100301.53
2022-12-08T21:00:06.248Z,100303.72
2022-12-08T21:02:33.822Z,100303.16
2022-12-08T21:05:00.924Z,100292.00
2022-12-08T21:07:28.146Z,100291.72
2022-12-08T21:09:55.090Z,100302.03
2022-12-08T21:12:24.546Z,100298.50
2022-12-08T21:14:52.461Z,100300.78
2022-12-08T21:17:19.615Z,100312.09
2022-12-08T21:19:46.793Z,100308.06
2022-12-08T21:22:14.335Z,100305.34
2022-12-08T21:24:41.548Z,100305.78
2022-12-08T21:27:08.435Z,100308.63
2022-12-08T21:29:35.499Z,100307.53
2022-12-08T21:32:02.676Z,100302.19
2022-12-08T21:34:34.371Z,100311.75
2022-12-08T21:37:01.590Z,100307.97
2022-12-08T21:39:28.814Z,100307.88
2022-12-08T21:42:14.710Z,100316.25
2022-12-08T21:44:41.726Z,100313.59
2022-12-08T21:47:09.002Z,100312.22
2022-12-08T21:49:36.283Z,100309.09
2022-12-08T21:52:03.652Z,100303.22
2022-12-08T21:54:33.109Z,100309.91
2022-12-08T21:57:00.046Z,100303.56
2022-12-08T21:59:27.295Z,100310.16
2022-12-08T22:01:54.407Z,100311.59
2022-12-08T22:04:22.457Z,100308.53
2022-12-08T22:06:49.417Z,100307.00
2022-12-08T22:09:17.035Z,100296.47
2022-12-08T22:11:45.326Z,100298.63
2022-12-08T22:14:14.976Z,100300.19
2022-12-08T22:16:42.978Z,100309.66
2022-12-08T22:19:10.215Z,100306.59
2022-12-08T22:21:38.252Z,100311.66
2022-12-08T22:24:05.773Z,100306.69
2022-12-08T22:26:32.757Z,100306.19
2022-12-08T22:29:00.481Z,100304.88
2022-12-08T22:31:27.859Z,100304.88
2022-12-08T22:33:55.488Z,100302.00
2022-12-08T22:36:26.920Z,100298.25
2022-12-08T22:38:54.005Z,100304.28
2022-12-08T22:41:21.749Z,100306.13
2022-12-08T22:43:49.297Z,100304.59
2022-12-08T22:46:18.041Z,100310.28
2022-12-08T22:48:45.373Z,100314.25
2022-12-08T22:51:12.600Z,100304.97
2022-12-08T22:53:39.908Z,100299.53
2022-12-08T22:56:08.075Z,100302.19
2022-12-08T22:58:35.359Z,100313.59
2022-12-08T23:01:02.707Z,100309.75
2022-12-08T23:03:30.013Z,100309.66
2022-12-08T23:05:57.626Z,100314.25
2022-12-08T23:08:24.834Z,100319.81
2022-12-08T23:10:53.222Z,100310.63
2022-12-08T23:13:20.654Z,100302.31
2022-12-08T23:15:47.777Z,100307.09
2022-12-08T23:18:16.247Z,100312.00
2022-12-08T23:20:43.093Z,100307.81
2022-12-08T23:23:09.898Z,100314.50
2022-12-08T23:25:40.995Z,100307.09
2022-12-08T23:28:07.997Z,100311.66
2022-12-08T23:30:35.434Z,100306.63
2022-12-08T23:33:02.283Z,100310.56
2022-12-08T23:35:29.501Z,100310.56
2022-12-08T23:37:56.465Z,100304.78
2022-12-08T23:40:23.671Z,100311.28
2022-12-08T23:42:50.697Z,100297.53
2022-12-08T23:45:17.615Z,100298.16
2022-12-08T23:47:44.647Z,100302.09
2022-12-08T23:50:12.247Z,100302.97
2022-12-08T23:52:40.127Z,100303.94
2022-12-08T23:55:07.996Z,100314.16
2022-12-08T23:57:35.810Z,100318.72
